Time;durP1;ratioP1;P1;durP2;ratioP2;P2;SDS_P1;SDS_P2;PMS_P1;PMS_P2;Temp;Humidity;BMP_temperature;BMP_pressure;BME280_temperature;BME280_humidity;BME280_pressure;Samples;Min_cycle;Max_cycle;Signal;HPM_P1;HPM_P2
2020/12/16 00:00:03;;;;;;;20.52;12.43;;;12.00;99.90;;;;;;5041075;28;20068;-47
2020/12/16 00:02:31;;;;;;;22.35;13.45;;;11.90;99.90;;;;;;5042856;28;20059;-46
2020/12/16 00:04:58;;;;;;;19.50;14.45;;;11.90;99.90;;;;;;5034817;28;20077;-46
2020/12/16 00:07:28;;;;;;;22.20;16.40;;;11.90;99.90;;;;;;5042836;28;20053;-46
2020/12/16 00:09:56;;;;;;;26.13;15.50;;;11.80;99.90;;;;;;5032432;28;20046;-47
2020/12/16 00:12:23;;;;;;;23.67;16.50;;;11.70;99.90;;;;;;5042115;28;20076;-47
2020/12/16 00:14:51;;;;;;;26.10;16.02;;;11.70;99.90;;;;;;5032161;28;20509;-47
2020/12/16 00:17:20;;;;;;;20.88;15.02;;;11.70;99.90;;;;;;5041184;28;20843;-46
2020/12/16 00:19:48;;;;;;;31.48;17.10;;;11.60;99.90;;;;;;5039479;28;20124;-47
2020/12/16 00:22:21;;;;;;;24.85;16.27;;;11.60;99.90;;;;;;5039890;28;20399;-47
2020/12/16 00:24:49;;;;;;;29.00;17.88;;;11.60;99.90;;;;;;5024002;28;20049;-47
2020/12/16 00:27:16;;;;;;;25.52;17.92;;;11.50;99.90;;;;;;5015584;28;20041;-53
2020/12/16 00:29:43;;;;;;;27.77;17.02;;;11.50;99.90;;;;;;5028422;28;20051;-51
2020/12/16 00:32:11;;;;;;;27.23;17.77;;;11.50;99.90;;;;;;5041724;28;20055;-52
2020/12/16 00:34:38;;;;;;;29.77;19.60;;;11.50;99.90;;;;;;5051226;28;20049;-54
2020/12/16 00:37:06;;;;;;;29.92;18.75;;;11.50;99.90;;;;;;5041110;28;20103;-52
2020/12/16 00:39:33;;;;;;;25.65;18.17;;;11.50;99.90;;;;;;5019119;28;20080;-48
2020/12/16 00:42:00;;;;;;;27.25;19.17;;;11.40;99.90;;;;;;5038768;28;20424;-52
2020/12/16 00:44:27;;;;;;;27.33;17.58;;;11.50;99.90;;;;;;5052945;28;20045;-46
2020/12/16 00:46:55;;;;;;;26.15;18.23;;;11.50;99.90;;;;;;5043357;28;20063;-52
2020/12/16 00:49:22;;;;;;;26.55;18.00;;;11.50;99.90;;;;;;5031571;28;20041;-46
2020/12/16 00:51:51;;;;;;;23.15;17.15;;;11.50;99.90;;;;;;5042408;28;20459;-46
2020/12/16 00:54:19;;;;;;;30.23;19.20;;;11.50;99.90;;;;;;5031471;28;20061;-46
2020/12/16 00:56:47;;;;;;;28.75;17.92;;;11.40;99.90;;;;;;5007884;28;20054;-47
2020/12/16 00:59:17;;;;;;;27.02;16.38;;;11.40;99.90;;;;;;5021179;28;20087;-47
2020/12/16 01:01:45;;;;;;;27.98;19.38;;;11.40;99.90;;;;;;5020455;28;20050;-51
2020/12/16 01:04:13;;;;;;;32.22;19.35;;;11.40;99.90;;;;;;5035230;28;20072;-47
2020/12/16 01:06:40;;;;;;;37.65;25.00;;;11.40;99.90;;;;;;5014391;28;20063;-47
2020/12/16 01:09:10;;;;;;;46.95;25.48;;;11.40;99.90;;;;;;5050205;28;20400;-52
2020/12/16 01:11:38;;;;;;;37.00;23.85;;;11.40;99.90;;;;;;5029466;28;20414;-47
2020/12/16 01:14:07;;;;;;;37.78;22.60;;;11.30;99.90;;;;;;5019466;28;20049;-46
2020/12/16 01:16:36;;;;;;;37.90;21.75;;;11.40;99.90;;;;;;5043587;28;20143;-47
2020/12/16 01:19:08;;;;;;;37.83;22.20;;;11.30;99.90;;;;;;5019676;28;20172;-47
2020/12/16 01:21:40;;;;;;;32.00;20.10;;;11.30;99.90;;;;;;5039887;28;20218;-54
2020/12/16 01:24:08;;;;;;;37.72;18.83;;;11.30;99.90;;;;;;5054538;28;20388;-48
2020/12/16 01:26:41;;;;;;;34.65;19.70;;;11.30;99.90;;;;;;5043126;28;20132;-47
2020/12/16 01:29:09;;;;;;;24.83;16.70;;;11.30;99.90;;;;;;5054760;28;20098;-48
2020/12/16 01:31:45;;;;;;;24.23;16.52;;;11.30;99.90;;;;;;5027037;28;20049;-63
2020/12/16 01:34:22;;;;;;;25.33;16.48;;;11.30;99.90;;;;;;5037858;28;20068;-47
2020/12/16 01:36:56;;;;;;;30.55;17.08;;;11.30;99.90;;;;;;5027865;28;20049;-46
2020/12/16 01:39:25;;;;;;;25.27;16.10;;;11.30;99.90;;;;;;5057402;28;20056;-48
2020/12/16 01:41:52;;;;;;;31.15;16.90;;;11.30;99.90;;;;;;5053502;28;20449;-46
2020/12/16 01:44:29;;;;;;;26.33;16.40;;;11.30;99.90;;;;;;5027389;28;20072;-48
2020/12/16 01:47:04;;;;;;;26.02;16.38;;;11.30;99.90;;;;;;5029453;28;20072;-46
2020/12/16 01:49:40;;;;;;;25.45;18.00;;;11.30;99.90;;;;;;5025196;28;20621;-47
2020/12/16 01:52:09;;;;;;;28.33;17.17;;;11.30;99.90;;;;;;5033943;28;20049;-54
2020/12/16 01:54:47;;;;;;;26.10;19.23;;;11.30;99.90;;;;;;5019981;28;20443;-47
2020/12/16 01:57:21;;;;;;;27.20;17.88;;;11.30;99.90;;;;;;5035683;28;20060;-47
2020/12/16 01:59:59;;;;;;;27.92;17.05;;;11.30;99.90;;;;;;5020050;28;20434;-47
2020/12/16 02:02:49;;;;;;;27.35;16.63;;;11.30;99.90;;;;;;5043163;28;20107;-50
2020/12/16 02:05:26;;;;;;;26.23;15.20;;;11.30;99.90;;;;;;5036654;28;20510;-47
2020/12/16 02:08:02;;;;;;;22.48;15.05;;;11.30;99.90;;;;;;5042494;28;20045;-48
2020/12/16 02:10:33;;;;;;;25.20;13.68;;;11.30;99.90;;;;;;5009335;28;20068;-53
2020/12/16 02:13:01;;;;;;;18.80;13.18;;;11.30;99.90;;;;;;5029002;28;20406;-52
2020/12/16 02:15:28;;;;;;;23.05;13.10;;;11.30;99.90;;;;;;5049996;28;20053;-48
2020/12/16 02:17:56;;;;;;;18.75;13.77;;;11.30;99.90;;;;;;5045936;28;20037;-48
2020/12/16 02:20:25;;;;;;;21.63;13.55;;;11.30;99.90;;;;;;5048845;28;20081;-47
2020/12/16 02:22:56;;;;;;;18.75;13.05;;;11.30;99.90;;;;;;5044607;28;20411;-49
2020/12/16 02:25:33;;;;;;;15.70;11.00;;;11.30;99.90;;;;;;5048602;28;20049;-46
2020/12/16 02:28:08;;;;;;;18.70;11.50;;;11.30;99.90;;;;;;5042428;28;20041;-47
2020/12/16 02:30:40;;;;;;;15.70;11.13;;;11.30;99.90;;;;;;5037315;28;20119;-52
2020/12/16 02:33:22;;;;;;;19.73;11.35;;;11.30;99.90;;;;;;5033515;28;20045;-48
2020/12/16 02:36:04;;;;;;;21.05;12.80;;;11.30;99.90;;;;;;5022945;28;20372;-50
2020/12/16 02:38:48;;;;;;;21.75;12.25;;;11.30;99.90;;;;;;5019449;28;20575;-47
2020/12/16 02:41:19;;;;;;;15.52;10.68;;;11.30;99.90;;;;;;5041178;28;20053;-46
2020/12/16 02:43:48;;;;;;;19.30;12.13;;;11.30;99.90;;;;;;5036119;28;20052;-47
2020/12/16 02:46:16;;;;;;;14.85;9.30;;;11.30;99.90;;;;;;5010315;28;20080;-48
2020/12/16 02:48:43;;;;;;;12.95;9.27;;;11.30;99.90;;;;;;5029788;28;20052;-47
2020/12/16 02:51:11;;;;;;;16.65;10.57;;;11.30;99.90;;;;;;5041058;28;20560;-48
2020/12/16 02:53:40;;;;;;;17.10;11.30;;;11.30;99.90;;;;;;5016892;28;20053;-46
2020/12/16 02:56:25;;;;;;;16.05;8.48;;;11.30;99.90;;;;;;5042005;28;20037;-47
2020/12/16 02:59:05;;;;;;;16.27;10.85;;;11.40;99.90;;;;;;5035009;28;20111;-46
2020/12/16 03:01:40;;;;;;;14.60;9.43;;;11.30;99.90;;;;;;5028686;28;20131;-55
2020/12/16 03:04:40;;;;;;;12.65;8.32;;;11.30;99.90;;;;;;5021802;28;20052;-48
2020/12/16 03:07:22;;;;;;;11.32;8.68;;;11.40;99.90;;;;;;5038938;28;20076;-46
2020/12/16 03:09:50;;;;;;;15.27;9.25;;;11.40;99.90;;;;;;5016638;28;20056;-46
2020/12/16 03:12:18;;;;;;;14.35;9.85;;;11.30;99.90;;;;;;5041875;28;20067;-47
2020/12/16 03:14:50;;;;;;;13.35;9.02;;;11.30;99.90;;;;;;5051178;28;20155;-52
2020/12/16 03:17:18;;;;;;;14.00;8.65;;;11.30;99.90;;;;;;5014712;28;20053;-49
2020/12/16 03:19:49;;;;;;;14.55;9.57;;;11.30;99.90;;;;;;5016713;28;20046;-52
2020/12/16 03:22:19;;;;;;;15.80;10.25;;;11.30;99.90;;;;;;5041492;28;20107;-50
2020/12/16 03:24:58;;;;;;;17.58;9.60;;;11.30;99.90;;;;;;5035906;28;20056;-51
2020/12/16 03:27:40;;;;;;;17.60;8.70;;;11.20;99.90;;;;;;5020172;28;20049;-58
2020/12/16 03:30:26;;;;;;;13.68;10.25;;;11.30;99.90;;;;;;5036195;28;20114;-50
2020/12/16 03:33:12;;;;;;;13.48;9.38;;;11.30;99.90;;;;;;5044938;28;20045;-50
2020/12/16 03:35:59;;;;;;;14.30;8.80;;;11.30;99.90;;;;;;5046509;28;20144;-47
2020/12/16 03:38:28;;;;;;;17.30;9.80;;;11.20;99.90;;;;;;5016205;28;20058;-47
2020/12/16 03:40:57;;;;;;;16.33;9.00;;;11.20;99.90;;;;;;5037399;28;20136;-46
2020/12/16 03:43:30;;;;;;;14.50;9.30;;;11.20;99.90;;;;;;5022358;28;20135;-50
2020/12/16 03:45:57;;;;;;;12.52;8.43;;;11.30;99.90;;;;;;5007744;28;20143;-48
2020/12/16 03:48:25;;;;;;;12.75;8.27;;;11.30;99.90;;;;;;5045954;28;20047;-50
2020/12/16 03:50:53;;;;;;;15.82;9.32;;;11.30;99.90;;;;;;5046583;28;20041;-48
2020/12/16 03:53:21;;;;;;;13.27;9.13;;;11.30;99.90;;;;;;5028456;28;20495;-49
2020/12/16 03:56:07;;;;;;;12.18;8.98;;;11.30;99.90;;;;;;5012432;28;20053;-47
2020/12/16 03:58:51;;;;;;;12.40;8.32;;;11.30;99.90;;;;;;5032042;28;20132;-46
2020/12/16 04:01:35;;;;;;;10.27;7.70;;;11.30;99.90;;;;;;5028077;28;20057;-49
2020/12/16 04:04:04;;;;;;;12.07;8.15;;;11.30;99.90;;;;;;5016601;28;20053;-47
2020/12/16 04:06:36;;;;;;;11.63;8.77;;;11.30;99.90;;;;;;5042183;28;20102;-47
2020/12/16 04:09:06;;;;;;;12.10;8.40;;;11.30;99.90;;;;;;5016310;28;20130;-47
2020/12/16 04:11:40;;;;;;;11.23;8.55;;;11.30;99.90;;;;;;5010876;28;20499;-55
2020/12/16 04:14:21;;;;;;;10.48;8.30;;;11.30;99.90;;;;;;5015892;28;20080;-47
2020/12/16 04:16:50;;;;;;;14.57;8.15;;;11.30;99.90;;;;;;5026853;28;20052;-46
2020/12/16 04:19:18;;;;;;;12.45;8.32;;;11.30;99.90;;;;;;4999625;28;20136;-46
2020/12/16 04:21:58;;;;;;;13.23;9.18;;;11.20;99.90;;;;;;5027349;28;20041;-61
2020/12/16 04:24:33;;;;;;;11.80;8.25;;;11.20;99.90;;;;;;5032327;28;20395;-46
2020/12/16 04:27:06;;;;;;;10.98;8.63;;;11.20;99.90;;;;;;5015122;28;20049;-47
2020/12/16 04:29:34;;;;;;;14.52;8.10;;;11.20;99.90;;;;;;5051677;28;20457;-48
2020/12/16 04:32:01;;;;;;;11.25;7.40;;;11.20;99.90;;;;;;5039217;28;20514;-47
2020/12/16 04:34:36;;;;;;;10.18;7.65;;;11.20;99.90;;;;;;5051818;28;20056;-47
2020/12/16 04:37:04;;;;;;;13.10;8.48;;;11.20;99.90;;;;;;5018233;28;20137;-50
2020/12/16 04:39:35;;;;;;;12.27;8.45;;;11.10;99.90;;;;;;5051864;28;20144;-51
2020/12/16 04:42:04;;;;;;;15.05;10.57;;;11.10;99.90;;;;;;5023474;28;20057;-50
2020/12/16 04:44:36;;;;;;;17.00;9.82;;;11.10;99.90;;;;;;5022241;28;20045;-50
2020/12/16 04:47:09;;;;;;;14.70;9.82;;;11.00;99.90;;;;;;5047645;28;20095;-51
2020/12/16 04:49:43;;;;;;;15.63;9.77;;;11.00;99.90;;;;;;5003529;28;20041;-50
2020/12/16 04:52:19;;;;;;;20.13;9.73;;;11.00;99.90;;;;;;5030328;28;20049;-49
2020/12/16 04:55:16;;;;;;;14.23;8.95;;;11.00;99.90;;;;;;5025127;28;20094;-50
2020/12/16 04:58:06;;;;;;;13.18;9.55;;;11.00;99.90;;;;;;5035242;28;20049;-47
2020/12/16 05:00:35;;;;;;;11.88;7.85;;;10.90;99.90;;;;;;5035746;28;20048;-47
2020/12/16 05:03:12;;;;;;;13.18;8.35;;;10.90;99.90;;;;;;5043580;28;20450;-50
2020/12/16 05:05:56;;;;;;;10.73;8.93;;;10.90;99.90;;;;;;5026156;28;20509;-47
2020/12/16 05:08:24;;;;;;;10.23;6.55;;;10.90;99.90;;;;;;5048485;28;20041;-48
2020/12/16 05:10:51;;;;;;;9.13;6.85;;;10.90;99.90;;;;;;5049917;28;20407;-48
2020/12/16 05:13:20;;;;;;;12.57;8.55;;;10.90;99.90;;;;;;5042467;28;20396;-47
2020/12/16 05:15:49;;;;;;;10.18;6.43;;;10.90;99.90;;;;;;5014603;28;20491;-50
2020/12/16 05:18:25;;;;;;;9.50;6.00;;;11.00;99.90;;;;;;5050017;28;20103;-46
2020/12/16 05:20:58;;;;;;;10.00;7.22;;;11.00;99.90;;;;;;5048486;28;20058;-46
2020/12/16 05:23:29;;;;;;;11.10;8.32;;;11.00;99.90;;;;;;5041040;28;20499;-46
2020/12/16 05:26:05;;;;;;;15.95;7.10;;;10.90;99.90;;;;;;5040429;28;20057;-46
2020/12/16 05:28:40;;;;;;;8.57;6.18;;;10.90;99.90;;;;;;5042359;28;20045;-49
2020/12/16 05:31:10;;;;;;;8.73;6.88;;;10.90;99.90;;;;;;5043650;28;20056;-46
2020/12/16 05:33:48;;;;;;;7.80;6.18;;;10.90;99.90;;;;;;5039187;28;20045;-47
2020/12/16 05:36:30;;;;;;;10.50;7.13;;;10.90;99.90;;;;;;5041856;28;20140;-48
2020/12/16 05:38:58;;;;;;;8.00;6.30;;;10.90;99.90;;;;;;5038776;28;20045;-47
2020/12/16 05:41:31;;;;;;;9.13;7.05;;;10.90;99.90;;;;;;5030240;28;20056;-46
2020/12/16 05:44:22;;;;;;;10.73;6.28;;;10.90;99.90;;;;;;5035869;28;20091;-46
2020/12/16 05:46:50;;;;;;;9.77;6.30;;;10.90;99.90;;;;;;5045702;28;20132;-46
2020/12/16 05:49:35;;;;;;;32.03;20.25;;;10.90;99.90;;;;;;5035945;28;20065;-47
2020/12/16 05:52:05;;;;;;;48.45;27.63;;;10.90;99.90;;;;;;5035136;28;20049;-46
2020/12/16 05:54:37;;;;;;;37.67;24.77;;;10.90;99.90;;;;;;5033375;28;20472;-46
2020/12/16 05:57:19;;;;;;;29.88;18.25;;;10.90;99.90;;;;;;5045462;28;20068;-46
2020/12/16 06:00:12;;;;;;;36.72;23.02;;;11.00;99.90;;;;;;5018078;28;20041;-53
2020/12/16 06:02:46;;;;;;;45.30;28.42;;;11.00;99.90;;;;;;5043117;28;20068;-49
2020/12/16 06:05:15;;;;;;;54.38;32.17;;;11.00;99.90;;;;;;5037653;28;20407;-48
2020/12/16 06:07:48;;;;;;;55.65;30.33;;;11.00;99.90;;;;;;5042663;28;20144;-48
2020/12/16 06:10:15;;;;;;;51.28;31.42;;;11.00;99.90;;;;;;5004227;28;20146;-50
2020/12/16 06:12:44;;;;;;;41.95;26.17;;;11.00;99.90;;;;;;5028624;28;20041;-46
2020/12/16 06:15:16;;;;;;;40.10;25.52;;;11.00;99.90;;;;;;5050396;28;20056;-49
2020/12/16 06:17:45;;;;;;;49.22;26.67;;;11.00;99.90;;;;;;5042767;28;20454;-48
2020/12/16 06:20:14;;;;;;;45.75;26.23;;;11.10;99.90;;;;;;5041454;28;20066;-48
2020/12/16 06:22:47;;;;;;;42.03;23.13;;;11.30;99.90;;;;;;5042619;28;20593;-47
2020/12/16 06:25:17;;;;;;;41.83;25.40;;;11.60;99.90;;;;;;5049006;28;20060;-47
2020/12/16 06:27:49;;;;;;;47.22;30.92;;;11.80;99.90;;;;;;5014466;28;20054;-49
2020/12/16 06:30:28;;;;;;;43.92;26.50;;;12.10;99.90;;;;;;5037264;28;20126;-47
2020/12/16 06:33:15;;;;;;;32.63;22.20;;;12.30;99.90;;;;;;5041675;28;20088;-51
2020/12/16 06:35:42;;;;;;;23.48;16.55;;;12.30;99.90;;;;;;5040676;28;20543;-47
2020/12/16 06:38:16;;;;;;;26.17;17.15;;;12.20;99.90;;;;;;5027544;28;20048;-47
2020/12/16 06:40:44;;;;;;;28.60;17.40;;;12.10;99.90;;;;;;5040119;28;20067;-50
2020/12/16 06:43:32;;;;;;;16.02;10.65;;;12.00;99.90;;;;;;5037762;28;20473;-46
2020/12/16 06:46:01;;;;;;;16.23;11.82;;;11.80;99.90;;;;;;5015198;28;20045;-50
2020/12/16 06:48:37;;;;;;;11.95;9.20;;;11.70;99.90;;;;;;5038056;28;20758;-47
2020/12/16 06:51:18;;;;;;;9.30;7.03;;;11.70;99.90;;;;;;5039964;28;20053;-47
2020/12/16 06:53:46;;;;;;;10.23;6.53;;;11.70;99.90;;;;;;5042217;28;20475;-50
2020/12/16 06:56:25;;;;;;;11.02;7.40;;;11.70;99.90;;;;;;5025433;28;20041;-47
2020/12/16 06:58:53;;;;;;;11.45;7.30;;;11.70;99.90;;;;;;5005539;28;20564;-49
2020/12/16 07:01:20;;;;;;;13.93;9.02;;;11.80;99.90;;;;;;5038200;28;20055;-47
2020/12/16 07:03:49;;;;;;;15.50;7.53;;;12.00;99.90;;;;;;5029239;28;20136;-48
2020/12/16 07:06:29;;;;;;;12.93;6.88;;;12.10;99.90;;;;;;5038002;28;20050;-51
2020/12/16 07:09:25;;;;;;;8.95;6.05;;;12.30;99.90;;;;;;5018789;28;20049;-54
2020/12/16 07:12:05;;;;;;;9.15;6.80;;;12.50;99.90;;;;;;5013587;28;20045;-46
2020/12/16 07:14:36;;;;;;;10.80;6.40;;;12.60;99.90;;;;;;5039373;28;20045;-46
2020/12/16 07:17:10;;;;;;;15.32;9.75;;;12.80;99.90;;;;;;5024543;28;20084;-47
2020/12/16 07:19:38;;;;;;;14.50;9.95;;;13.10;99.90;;;;;;5039721;28;20041;-55
2020/12/16 07:22:22;;;;;;;14.15;8.95;;;13.40;99.90;;;;;;5039859;28;20045;-47
2020/12/16 07:24:51;;;;;;;19.55;15.25;;;13.90;99.90;;;;;;5045426;28;20053;-47
2020/12/16 07:27:25;;;;;;;54.67;23.25;;;14.40;99.90;;;;;;5018749;28;20034;-46
2020/12/16 07:30:03;;;;;;;32.42;20.85;;;14.80;99.90;;;;;;5038204;28;20095;-49
2020/12/16 07:32:31;;;;;;;34.72;24.30;;;15.40;99.90;;;;;;5036769;28;20071;-48
2020/12/16 07:35:02;;;;;;;30.08;23.52;;;16.10;99.90;;;;;;5027106;28;20050;-47
2020/12/16 07:37:32;;;;;;;27.02;17.60;;;16.90;99.40;;;;;;5046392;28;20052;-49
2020/12/16 07:40:12;;;;;;;21.55;15.20;;;17.50;98.20;;;;;;5038803;28;20522;-50
2020/12/16 07:42:40;;;;;;;22.70;15.32;;;17.90;97.40;;;;;;5013011;28;20048;-45
2020/12/16 07:45:14;;;;;;;36.92;22.58;;;18.00;96.50;;;;;;5019561;28;20132;-48
2020/12/16 07:47:46;;;;;;;54.13;30.63;;;18.00;96.20;;;;;;5040944;28;20484;-45
2020/12/16 07:50:16;;;;;;;54.72;33.58;;;18.00;96.40;;;;;;5001598;28;20071;-48
2020/12/16 07:52:54;;;;;;;71.25;41.53;;;18.30;96.10;;;;;;5028038;28;20041;-46
2020/12/16 07:55:25;;;;;;;63.72;36.72;;;18.60;95.70;;;;;;5020429;28;20048;-51
2020/12/16 07:57:52;;;;;;;49.03;28.90;;;19.00;95.00;;;;;;5043062;28;20552;-50
2020/12/16 08:00:24;;;;;;;34.47;21.98;;;19.30;94.20;;;;;;5048154;28;20076;-49
2020/12/16 08:02:54;;;;;;;31.60;19.10;;;19.50;93.80;;;;;;5027000;28;20243;-49
2020/12/16 08:05:23;;;;;;;30.38;19.60;;;19.60;93.70;;;;;;5032473;28;20045;-52
2020/12/16 08:07:51;;;;;;;28.05;19.13;;;19.80;93.60;;;;;;5026376;28;20041;-48
2020/12/16 08:10:22;;;;;;;18.40;11.25;;;20.00;93.60;;;;;;5018187;28;20136;-48
2020/12/16 08:12:53;;;;;;;21.77;12.80;;;20.20;93.20;;;;;;5040973;28;20057;-50
2020/12/16 08:15:24;;;;;;;41.92;19.77;;;20.30;93.00;;;;;;5034423;28;20132;-48
2020/12/16 08:17:58;;;;;;;24.27;13.85;;;20.40;93.00;;;;;;5041051;28;20045;-51
2020/12/16 08:20:33;;;;;;;21.58;10.90;;;20.60;92.90;;;;;;5034162;28;20145;-46
2020/12/16 08:23:10;;;;;;;18.55;11.25;;;20.70;92.50;;;;;;5014726;28;20072;-47
2020/12/16 08:25:40;;;;;;;21.83;11.18;;;20.70;92.40;;;;;;5003374;28;20053;-45
2020/12/16 08:28:09;;;;;;;21.90;11.15;;;20.70;92.30;;;;;;5039840;28;20053;-49
2020/12/16 08:30:38;;;;;;;21.25;11.98;;;20.50;92.40;;;;;;5018263;28;20049;-47
2020/12/16 08:33:15;;;;;;;19.92;12.38;;;20.30;92.80;;;;;;5044351;28;20502;-48
2020/12/16 08:35:57;;;;;;;19.67;11.02;;;20.00;93.20;;;;;;5047059;28;20055;-48
2020/12/16 08:38:29;;;;;;;12.63;7.40;;;19.80;93.60;;;;;;5029318;28;20048;-51
2020/12/16 08:40:59;;;;;;;13.65;7.53;;;19.40;93.60;;;;;;5046527;28;20132;-46
2020/12/16 08:43:31;;;;;;;12.18;6.82;;;19.20;94.20;;;;;;5038773;28;20109;-45
2020/12/16 08:45:59;;;;;;;11.32;6.80;;;19.00;94.60;;;;;;5037640;28;20076;-47
2020/12/16 08:48:43;;;;;;;8.40;5.28;;;18.90;94.60;;;;;;5021154;28;20078;-48
2020/12/16 08:51:22;;;;;;;6.57;4.88;;;18.80;94.60;;;;;;5039317;28;20513;-50
2020/12/16 08:53:56;;;;;;;8.10;4.55;;;18.70;94.50;;;;;;5034914;28;20096;-47
2020/12/16 08:56:39;;;;;;;8.10;4.75;;;18.60;94.40;;;;;;5039974;28;20056;-46
2020/12/16 08:59:10;;;;;;;9.52;4.25;;;18.60;94.50;;;;;;5048193;28;20053;-48
2020/12/16 09:01:52;;;;;;;7.90;4.60;;;18.50;94.50;;;;;;5025527;28;20045;-47
2020/12/16 09:04:41;;;;;;;7.22;3.45;;;18.40;94.50;;;;;;5031614;28;20060;-46
2020/12/16 09:07:23;;;;;;;4.88;3.42;;;18.20;94.80;;;;;;5026814;28;20050;-46
2020/12/16 09:09:51;;;;;;;6.78;4.10;;;17.90;95.20;;;;;;5031310;28;20514;-47
2020/12/16 09:12:24;;;;;;;8.88;4.32;;;17.70;95.80;;;;;;5040187;28;20075;-47
2020/12/16 09:14:54;;;;;;;8.52;3.83;;;17.40;96.30;;;;;;5050555;28;20045;-46
2020/12/16 09:17:30;;;;;;;9.07;5.60;;;17.20;96.80;;;;;;5041766;28;20060;-49
2020/12/16 09:19:58;;;;;;;;;;;16.90;97.20;;;;;;5050860;28;20108;-46
2020/12/16 09:22:29;;;;;;;9.13;4.72;;;16.70;97.40;;;;;;5040975;28;19921;-48
2020/12/16 09:24:58;;;;;;;7.75;4.70;;;16.60;97.90;;;;;;5032111;28;20463;-46
2020/12/16 09:27:27;;;;;;;7.32;4.45;;;16.50;98.10;;;;;;5041952;28;20119;-50
2020/12/16 09:29:55;;;;;;;6.32;3.63;;;16.60;98.20;;;;;;5025657;28;20060;-47
2020/12/16 09:32:27;;;;;;;7.95;4.43;;;16.70;97.90;;;;;;5041183;28;20047;-47
2020/12/16 09:34:58;;;;;;;8.73;4.95;;;17.00;97.90;;;;;;5042756;28;20049;-52
2020/12/16 09:37:35;;;;;;;6.57;3.70;;;17.30;97.60;;;;;;5030809;28;20053;-51
2020/12/16 09:40:12;;;;;;;7.57;4.05;;;17.60;97.20;;;;;;5020208;28;20495;-52
2020/12/16 09:43:04;;;;;;;6.55;3.65;;;17.80;96.50;;;;;;5043131;28;20115;-48
2020/12/16 09:45:39;;;;;;;5.82;3.67;;;17.80;95.90;;;;;;5038319;28;20048;-49
2020/12/16 09:48:10;;;;;;;7.50;4.72;;;17.90;95.30;;;;;;5038822;28;20136;-61
2020/12/16 09:50:47;;;;;;;6.38;4.93;;;17.90;95.00;;;;;;5024292;28;20600;-50
2020/12/16 09:53:16;;;;;;;6.97;4.13;;;17.90;95.10;;;;;;5034067;28;20478;-50
2020/12/16 09:55:44;;;;;;;7.72;5.03;;;17.90;95.40;;;;;;5036207;28;20396;-47
2020/12/16 09:58:15;;;;;;;6.18;3.67;;;17.90;95.40;;;;;;5023827;28;20567;-52
2020/12/16 10:00:43;;;;;;;8.05;3.53;;;18.00;95.20;;;;;;5016005;28;20404;-51
2020/12/16 10:03:13;;;;;;;6.88;3.97;;;18.10;95.30;;;;;;5042012;28;20046;-50
2020/12/16 10:05:41;;;;;;;6.88;3.63;;;18.20;94.80;;;;;;5035806;28;20553;-54
2020/12/16 10:08:14;;;;;;;7.85;3.63;;;18.20;94.60;;;;;;5044404;28;20045;-47
2020/12/16 10:10:43;;;;;;;12.55;4.68;;;18.20;94.50;;;;;;5049028;28;20471;-48
2020/12/16 10:13:12;;;;;;;9.07;6.35;;;18.20;94.70;;;;;;5045047;28;20080;-49
2020/12/16 10:15:41;;;;;;;9.57;5.82;;;18.20;95.00;;;;;;5049424;28;20041;-49
2020/12/16 10:18:09;;;;;;;7.47;4.68;;;18.30;94.90;;;;;;5041130;28;20121;-51
2020/12/16 10:20:40;;;;;;;8.90;3.67;;;18.30;94.40;;;;;;5025127;28;20517;-52
2020/12/16 10:23:08;;;;;;;9.05;4.15;;;18.20;93.80;;;;;;5042117;28;20053;-51
2020/12/16 10:25:37;;;;;;;5.35;3.90;;;18.30;93.90;;;;;;5018454;28;20046;-48
2020/12/16 10:28:09;;;;;;;7.57;3.95;;;18.30;94.30;;;;;;5048634;28;20041;-50
2020/12/16 10:30:40;;;;;;;6.88;3.45;;;18.20;93.60;;;;;;5048811;28;20038;-50
2020/12/16 10:33:15;;;;;;;7.82;5.85;;;18.20;93.80;;;;;;5021842;28;20064;-50
2020/12/16 10:35:43;;;;;;;7.50;5.03;;;18.20;93.00;;;;;;5019215;28;20045;-48
2020/12/16 10:38:13;;;;;;;7.90;4.43;;;18.20;92.70;;;;;;5029355;28;20085;-51
2020/12/16 10:40:41;;;;;;;7.55;4.35;;;18.20;92.80;;;;;;5047448;28;20049;-52
2020/12/16 10:43:10;;;;;;;4.35;3.20;;;18.20;92.30;;;;;;5024637;28;20060;-51
2020/12/16 10:45:41;;;;;;;8.27;4.15;;;18.40;92.60;;;;;;5019685;28;20057;-54
2020/12/16 10:48:11;;;;;;;6.53;3.83;;;18.50;92.80;;;;;;5038769;28;20061;-49
2020/12/16 10:50:39;;;;;;;9.38;4.78;;;18.60;92.40;;;;;;5048372;28;20044;-48
2020/12/16 10:53:07;;;;;;;6.13;3.55;;;18.70;92.00;;;;;;5039901;28;20061;-49
2020/12/16 10:55:54;;;;;;;6.10;3.25;;;18.80;92.30;;;;;;5031895;28;20204;-54
2020/12/16 10:58:21;;;;;;;8.00;3.78;;;19.00;92.30;;;;;;5044709;28;20053;-48
2020/12/16 11:00:49;;;;;;;5.55;3.85;;;19.00;92.10;;;;;;5041424;28;20049;-52
2020/12/16 11:03:17;;;;;;;5.97;3.50;;;19.00;91.60;;;;;;5053263;28;20049;-53
2020/12/16 11:05:44;;;;;;;6.18;2.83;;;18.90;91.10;;;;;;5041978;28;20045;-54
2020/12/16 11:08:12;;;;;;;5.47;3.25;;;18.90;91.40;;;;;;5046930;28;20085;-48
2020/12/16 11:10:49;;;;;;;5.95;3.35;;;18.90;91.50;;;;;;5046922;28;20056;-53
2020/12/16 11:13:17;;;;;;;5.30;3.60;;;18.70;91.90;;;;;;5038375;28;20132;-51
2020/12/16 11:15:45;;;;;;;6.05;3.53;;;18.60;91.80;;;;;;5035832;28;20042;-50
2020/12/16 11:18:15;;;;;;;6.47;3.63;;;18.60;91.60;;;;;;5017957;28;20553;-51
2020/12/16 11:20:43;;;;;;;6.05;3.95;;;18.40;91.60;;;;;;5043055;28;20095;-53
2020/12/16 11:23:10;;;;;;;6.55;3.53;;;18.40;92.20;;;;;;5030138;28;20470;-56
2020/12/16 11:25:38;;;;;;;5.57;3.72;;;18.50;92.00;;;;;;5037555;28;20060;-50
2020/12/16 11:28:05;;;;;;;4.97;3.30;;;18.50;92.30;;;;;;5039235;28;20069;-49
2020/12/16 11:30:33;;;;;;;6.60;3.78;;;18.50;91.70;;;;;;5038827;28;20068;-49
2020/12/16 11:33:01;;;;;;;6.15;3.78;;;18.50;90.90;;;;;;5037080;28;20037;-52
2020/12/16 11:35:29;;;;;;;6.63;4.10;;;18.60;90.60;;;;;;5041969;28;20053;-53
2020/12/16 11:37:57;;;;;;;7.20;3.13;;;18.60;91.10;;;;;;5008588;28;20435;-53
2020/12/16 11:40:24;;;;;;;4.13;2.63;;;18.50;90.30;;;;;;5020680;28;20053;-50
2020/12/16 11:42:53;;;;;;;6.72;3.38;;;18.50;90.00;;;;;;5031043;28;20045;-51
2020/12/16 11:45:21;;;;;;;7.65;3.42;;;18.50;90.10;;;;;;5044862;28;20053;-50
2020/12/16 11:47:49;;;;;;;5.57;2.97;;;18.40;89.70;;;;;;5042409;28;20053;-52
2020/12/16 11:50:17;;;;;;;3.97;3.30;;;18.30;90.00;;;;;;5040175;28;20040;-48
2020/12/16 11:52:45;;;;;;;5.80;3.33;;;18.00;90.40;;;;;;5023963;28;20137;-51
2020/12/16 11:55:13;;;;;;;4.82;3.00;;;17.80;90.20;;;;;;5027923;28;20178;-52
2020/12/16 11:57:41;;;;;;;5.50;3.53;;;17.60;90.20;;;;;;5049993;28;20052;-62
2020/12/16 12:00:09;;;;;;;6.80;3.17;;;17.60;90.50;;;;;;5030404;28;20041;-49
2020/12/16 12:02:39;;;;;;;7.90;3.28;;;17.60;91.10;;;;;;5031105;28;20091;-49
2020/12/16 12:05:17;;;;;;;7.43;3.78;;;17.60;91.60;;;;;;5020573;28;20064;-48
2020/12/16 12:07:45;;;;;;;8.70;5.70;;;17.50;91.00;;;;;;5022457;28;20049;-48
2020/12/16 12:10:15;;;;;;;8.82;4.68;;;17.60;91.80;;;;;;5042597;28;20132;-50
2020/12/16 12:12:43;;;;;;;5.80;4.72;;;17.60;91.80;;;;;;5045911;28;20071;-49
2020/12/16 12:15:12;;;;;;;10.07;5.18;;;17.50;91.90;;;;;;5035922;28;20044;-51
2020/12/16 12:17:39;;;;;;;5.90;4.55;;;17.40;92.60;;;;;;5018376;28;20053;-49
2020/12/16 12:20:09;;;;;;;9.55;5.88;;;17.30;92.70;;;;;;5024272;28;20049;-50
2020/12/16 12:22:40;;;;;;;11.77;6.57;;;17.30;92.30;;;;;;5038802;28;20136;-52
2020/12/16 12:25:07;;;;;;;10.27;6.32;;;17.30;92.80;;;;;;5040381;28;20145;-49
2020/12/16 12:27:35;;;;;;;6.93;4.57;;;17.20;92.40;;;;;;5045644;28;20045;-55
2020/12/16 12:30:03;;;;;;;6.80;4.30;;;17.20;92.70;;;;;;5022833;28;20099;-52
2020/12/16 12:32:31;;;;;;;4.95;3.45;;;17.10;91.90;;;;;;5029669;28;20053;-53
2020/12/16 12:34:58;;;;;;;9.15;3.13;;;17.10;91.50;;;;;;5030024;28;20556;-49
2020/12/16 12:37:26;;;;;;;6.30;3.30;;;17.10;91.70;;;;;;5031758;28;20114;-50
2020/12/16 12:39:54;;;;;;;5.55;3.85;;;17.10;91.90;;;;;;5032882;28;20057;-49
2020/12/16 12:42:21;;;;;;;6.15;3.90;;;17.20;92.00;;;;;;5034830;28;20052;-47
2020/12/16 12:44:49;;;;;;;7.55;3.72;;;17.20;92.30;;;;;;5040214;28;20056;-51
2020/12/16 12:47:16;;;;;;;6.82;4.03;;;17.20;92.50;;;;;;5038645;28;20479;-51
2020/12/16 12:49:44;;;;;;;11.35;6.68;;;17.20;92.90;;;;;;5029925;28;20167;-48
2020/12/16 12:52:12;;;;;;;10.02;7.03;;;17.20;92.80;;;;;;5030744;28;20057;-51
2020/12/16 12:54:39;;;;;;;8.00;5.03;;;17.10;92.60;;;;;;5032552;28;20085;-51
2020/12/16 12:57:08;;;;;;;9.05;4.72;;;17.10;92.60;;;;;;5041610;28;20056;-49
2020/12/16 12:59:35;;;;;;;7.10;4.07;;;17.10;93.50;;;;;;5028772;28;20495;-51